Time;durP1;ratioP1;P1;durP2;ratioP2;P2;SDS_P1;SDS_P2;PMS_P1;PMS_P2;Temp;Humidity;BMP_temperature;BMP_pressure;BME280_temperature;BME280_humidity;BME280_pressure;Samples;Min_cycle;Max_cycle;Signal;HPM_P1;HPM_P2
2022/03/05 00:01:34;;;;;;;43.30;23.20;;;;;;;0.35;72.31;101187.66;107827;1244;71956;-72
2022/03/05 00:04:04;;;;;;;48.30;25.40;;;;;;;0.34;72.51;101187.52;107847;1246;70427;-69
2022/03/05 00:06:33;;;;;;;43.60;22.50;;;;;;;0.34;72.23;101186.33;107917;1244;73603;-71
2022/03/05 00:09:02;;;;;;;49.20;26.50;;;;;;;0.33;72.27;101183.45;107748;1243;63481;-71
2022/03/05 00:11:31;;;;;;;49.90;25.00;;;;;;;0.29;72.56;101186.27;107864;1244;60466;-71
2022/03/05 00:14:00;;;;;;;38.60;22.30;;;;;;;0.25;72.50;101185.67;107822;1244;72586;-70
2022/03/05 00:16:29;;;;;;;46.50;24.60;;;;;;;0.20;72.44;101187.31;107797;1244;72671;-70
2022/03/05 00:18:59;;;;;;;52.70;27.00;;;;;;;0.19;73.16;101179.96;107895;1244;71481;-70
2022/03/05 00:21:28;;;;;;;47.70;23.90;;;;;;;0.21;73.49;101179.75;107707;1245;72883;-70
2022/03/05 00:23:57;;;;;;;50.20;24.80;;;;;;;0.27;73.80;101179.95;107818;1244;59747;-69
2022/03/05 00:26:26;;;;;;;42.50;22.00;;;;;;;0.24;73.40;101181.05;107972;1244;59672;-72
2022/03/05 00:28:55;;;;;;;40.10;21.90;;;;;;;0.11;73.18;101177.74;107937;1244;74417;-71
2022/03/05 00:31:24;;;;;;;48.00;21.40;;;;;;;0.09;73.22;101179.86;107914;1244;69832;-69
2022/03/05 00:33:53;;;;;;;42.50;24.20;;;;;;;0.01;73.21;101177.45;107774;1244;66919;-69
2022/03/05 00:36:22;;;;;;;52.20;26.40;;;;;;;0.00;73.45;101179.20;107851;1244;73635;-69
2022/03/05 00:38:51;;;;;;;48.70;25.30;;;;;;;-0.06;73.87;101177.61;107751;1244;59547;-68
2022/03/05 00:41:20;;;;;;;47.60;24.20;;;;;;;-0.08;74.08;101175.41;107872;1244;59522;-70
2022/03/05 00:43:49;;;;;;;36.70;20.10;;;;;;;-0.10;73.69;101174.08;107808;1244;72478;-71
2022/03/05 00:46:18;;;;;;;44.20;23.40;;;;;;;-0.16;73.80;101170.11;107786;1244;69576;-70
2022/03/05 00:48:47;;;;;;;47.50;24.30;;;;;;;-0.22;73.98;101166.46;107818;1244;71609;-70
2022/03/05 00:51:17;;;;;;;44.60;23.00;;;;;;;-0.21;74.11;101165.06;108021;1244;75058;-70
2022/03/05 00:53:46;;;;;;;48.80;24.30;;;;;;;-0.22;74.21;101164.23;108043;1244;59575;-71
2022/03/05 00:56:17;;;;;;;52.30;27.50;;;;;;;-0.22;74.16;101164.24;108049;1243;62384;-71
2022/03/05 00:58:45;;;;;;;53.80;25.00;;;;;;;-0.29;74.06;101164.89;108035;1242;74822;-71
2022/03/05 01:01:14;;;;;;;51.30;24.20;;;;;;;-0.26;73.92;101160.22;108004;1244;71074;-70
2022/03/05 01:03:44;;;;;;;49.80;25.80;;;;;;;-0.24;74.67;101159.82;107915;1244;69765;-71
2022/03/05 01:06:13;;;;;;;51.80;26.00;;;;;;;-0.23;74.47;101158.78;107899;1244;71488;-70
2022/03/05 01:08:43;;;;;;;47.10;24.50;;;;;;;-0.24;74.35;101153.67;108165;1242;58949;-71
2022/03/05 01:11:15;;;;;;;51.40;25.30;;;;;;;-0.23;74.09;101157.76;108057;1244;59981;-71
2022/03/05 01:13:45;;;;;;;50.70;26.00;;;;;;;-0.27;74.31;101153.55;108206;1243;73336;-71
2022/03/05 01:16:14;;;;;;;52.40;27.90;;;;;;;-0.31;74.72;101158.79;107839;1244;69864;-71
2022/03/05 01:18:44;;;;;;;47.40;21.70;;;;;;;-0.34;74.87;101157.45;107661;1244;70464;-70
2022/03/05 01:21:13;;;;;;;55.90;26.20;;;;;;;-0.37;74.93;101162.66;108014;1243;71845;-70
2022/03/05 01:23:42;;;;;;;54.10;26.20;;;;;;;-0.40;74.98;101164.09;107737;1244;61289;-72
2022/03/05 01:26:11;;;;;;;57.40;27.30;;;;;;;-0.42;75.46;101167.89;107876;1244;59083;-69
2022/03/05 01:28:40;;;;;;;49.00;24.30;;;;;;;-0.44;75.81;101167.24;107742;1244;72452;-72
2022/03/05 01:31:09;;;;;;;54.90;28.20;;;;;;;-0.42;75.69;101168.73;107888;1243;71197;-71
2022/03/05 01:33:38;;;;;;;52.50;25.20;;;;;;;-0.40;75.66;101173.67;107936;1243;69279;-72
2022/03/05 01:36:07;;;;;;;55.80;27.00;;;;;;;-0.36;75.65;101173.08;107905;1244;71441;-71
2022/03/05 01:38:36;;;;;;;54.70;27.50;;;;;;;-0.30;75.83;101174.16;107831;1244;61692;-71
2022/03/05 01:41:05;;;;;;;59.70;28.50;;;;;;;-0.25;75.82;101171.31;107935;1244;59672;-73
2022/03/05 01:43:34;;;;;;;65.70;33.00;;;;;;;-0.21;75.70;101174.15;107589;1242;72810;-71
2022/03/05 01:46:03;;;;;;;56.30;28.60;;;;;;;-0.15;75.21;101171.29;107984;1244;72677;-71
2022/03/05 01:48:32;;;;;;;52.90;26.00;;;;;;;-0.08;75.43;101173.19;107974;1242;69014;-70
2022/03/05 01:51:01;;;;;;;60.10;29.10;;;;;;;-0.04;75.22;101174.13;107939;1243;73075;-72
2022/03/05 01:53:30;;;;;;;57.80;29.00;;;;;;;0.01;75.27;101176.10;107877;1244;61842;-70
2022/03/05 01:55:59;;;;;;;57.10;28.30;;;;;;;0.02;75.23;101185.32;107944;1244;59602;-71
2022/03/05 01:58:29;;;;;;;46.10;24.20;;;;;;;0.07;74.99;101177.67;108075;1243;74050;-71
2022/03/05 02:00:58;;;;;;;60.40;29.70;;;;;;;0.11;75.06;101180.15;107946;1241;72184;-73
2022/03/05 02:03:28;;;;;;;62.00;31.30;;;;;;;0.12;74.73;101183.03;107920;1242;71500;-74
2022/03/05 02:05:57;;;;;;;60.70;30.00;;;;;;;0.15;75.07;101182.11;108070;1243;71759;-72
2022/03/05 02:08:26;;;;;;;59.50;29.00;;;;;;;0.14;75.07;101184.88;108057;1242;61448;-71
2022/03/05 02:10:54;;;;;;;52.50;26.40;;;;;;;0.12;75.07;101179.63;108229;1241;62076;-71
2022/03/05 02:13:23;;;;;;;65.70;31.20;;;;;;;0.12;75.00;101182.19;108181;1241;73371;-71
2022/03/05 02:15:57;;;;;;;62.30;29.80;;;;;;;0.13;75.34;101185.77;107888;1241;70306;-68
2022/03/05 02:18:26;;;;;;;60.80;29.10;;;;;;;0.16;75.37;101185.02;108071;1241;69008;-69
2022/03/05 02:20:56;;;;;;;54.50;26.00;;;;;;;0.16;75.51;101184.66;108116;1241;73879;-69
2022/03/05 02:23:24;;;;;;;59.50;27.80;;;;;;;0.16;75.29;101191.20;108044;1241;62464;-71
2022/03/05 02:26:04;;;;;;;68.40;32.10;;;;;;;0.14;75.58;101187.45;108218;1241;60177;-73
2022/03/05 02:28:35;;;;;;;56.60;28.80;;;;;;;0.16;75.85;101192.20;107953;1244;71802;-71
2022/03/05 02:31:05;;;;;;;67.70;32.10;;;;;;;0.17;76.00;101192.69;108249;1241;71800;-71
2022/03/05 02:33:34;;;;;;;62.50;31.00;;;;;;;0.15;75.77;101195.65;108143;1241;71616;-70
2022/03/05 02:36:05;;;;;;;62.80;29.90;;;;;;;0.13;75.64;101193.31;108233;1241;72480;-71
2022/03/05 02:38:34;;;;;;;54.00;27.30;;;;;;;0.09;75.96;101192.01;108195;1241;62065;-70
2022/03/05 02:41:03;;;;;;;61.80;31.10;;;;;;;0.12;76.22;101194.34;108215;1241;60819;-71
2022/03/05 02:43:32;;;;;;;64.10;30.30;;;;;;;0.13;76.48;101193.65;108134;1241;74983;-70
2022/03/05 02:46:02;;;;;;;59.20;29.50;;;;;;;0.06;76.40;101197.75;108271;1241;69941;-71
2022/03/05 02:48:33;;;;;;;61.90;30.90;;;;;;;0.08;76.07;101197.70;108257;1241;70532;-71
2022/03/05 02:51:03;;;;;;;53.90;25.60;;;;;;;0.10;75.94;101197.46;108218;1241;73627;-72
2022/03/05 02:53:32;;;;;;;64.20;31.60;;;;;;;0.13;76.06;101194.67;108174;1241;61334;-72
2022/03/05 02:56:00;;;;;;;65.80;31.10;;;;;;;0.12;76.60;101193.65;107928;1241;60079;-69
2022/03/05 02:58:29;;;;;;;63.40;30.70;;;;;;;0.15;76.45;101189.48;107898;1244;71681;-70
2022/03/05 03:00:58;;;;;;;67.90;32.90;;;;;;;0.11;76.29;101192.48;108099;1241;69355;-71
2022/03/05 03:03:27;;;;;;;59.80;28.30;;;;;;;0.12;76.07;101196.05;108190;1241;70212;-70
2022/03/05 03:05:56;;;;;;;61.40;30.30;;;;;;;0.11;76.19;101198.14;107784;1241;73484;-68
2022/03/05 03:08:26;;;;;;;63.30;33.80;;;;;;;0.08;76.16;101197.69;108085;1241;62079;-69
2022/03/05 03:10:55;;;;;;;56.30;27.50;;;;;;;0.03;76.49;101198.65;108117;1241;62049;-69
2022/03/05 03:13:23;;;;;;;63.20;31.80;;;;;;;0.11;76.19;101197.98;108080;1241;74428;-71
2022/03/05 03:15:52;;;;;;;54.00;27.00;;;;;;;0.09;76.01;101199.71;108080;1241;71043;-69
2022/03/05 03:18:22;;;;;;;58.80;28.50;;;;;;;0.09;76.24;101202.45;108022;1242;69010;-68
2022/03/05 03:20:51;;;;;;;63.60;31.60;;;;;;;0.11;76.65;101199.16;107876;1244;72571;-70
2022/03/05 03:23:21;;;;;;;62.60;29.10;;;;;;;0.12;76.24;101206.00;108096;1241;59797;-72
2022/03/05 03:25:50;;;;;;;58.20;29.30;;;;;;;0.06;75.91;101193.27;108058;1241;61152;-72
2022/03/05 03:28:23;;;;;;;;;;;;;;;0.09;76.30;101206.23;108103;1241;74151;-68
2022/03/05 03:30:52;;;;;;;64.30;30.50;;;;;;;0.06;76.42;101207.16;108099;1241;72262;-69
2022/03/05 03:33:21;;;;;;;65.90;30.20;;;;;;;0.10;76.51;101215.11;108204;1241;70179;-69
2022/03/05 03:35:50;;;;;;;67.40;31.60;;;;;;;0.06;76.67;101214.02;108148;1241;73355;-69
2022/03/05 03:38:19;;;;;;;71.20;34.00;;;;;;;0.06;76.39;101217.27;108168;1241;60049;-69
2022/03/05 03:40:48;;;;;;;65.60;29.70;;;;;;;0.05;76.65;101214.20;108258;1241;59474;-71
2022/03/05 03:43:17;;;;;;;66.00;31.30;;;;;;;0.08;77.09;101218.94;108014;1241;75444;-71
2022/03/05 03:45:46;;;;;;;63.40;30.90;;;;;;;0.01;76.95;101218.03;107887;1241;73797;-71
2022/03/05 03:48:15;;;;;;;56.00;26.50;;;;;;;0.03;76.89;101214.91;108044;1244;68387;-70
2022/03/05 03:50:44;;;;;;;64.10;29.90;;;;;;;0.01;76.85;101217.19;107876;1244;72878;-70
2022/03/05 03:53:13;;;;;;;67.40;31.10;;;;;;;0.02;76.80;101215.12;107891;1244;60858;-70
2022/03/05 03:55:42;;;;;;;64.70;31.00;;;;;;;-0.03;77.08;101219.14;107966;1243;59424;-71
2022/03/05 03:58:11;;;;;;;64.50;31.00;;;;;;;0.00;77.51;101217.89;107815;1244;72694;-70
2022/03/05 04:00:40;;;;;;;63.60;30.50;;;;;;;0.02;77.27;101215.29;107926;1244;69643;-71
2022/03/05 04:03:09;;;;;;;66.80;29.90;;;;;;;0.00;77.03;101221.31;107955;1244;68951;-70
2022/03/05 04:05:38;;;;;;;65.20;31.30;;;;;;;0.01;77.10;101222.50;108082;1243;74838;-71
2022/03/05 04:11:32;;;;;;;64.80;31.00;;;;;;;-0.03;77.44;101220.34;107573;1247;61104;-71
2022/03/05 04:14:01;;;;;;;61.40;29.00;;;;;;;-0.08;77.41;101224.90;107932;1244;73277;-71
2022/03/05 04:16:30;;;;;;;65.20;30.10;;;;;;;-0.05;77.54;101227.93;108125;1242;70281;-72
2022/03/05 04:18:59;;;;;;;61.70;28.90;;;;;;;-0.02;77.57;101229.25;108314;1244;67942;-73
2022/03/05 04:21:28;;;;;;;43.10;19.10;;;;;;;-0.00;77.72;101230.05;108239;1243;71142;-68
2022/03/05 04:23:57;;;;;;;66.00;29.50;;;;;;;-0.03;77.41;101228.41;108141;1243;60074;-73
2022/03/05 04:26:26;;;;;;;46.90;22.60;;;;;;;-0.07;77.66;101230.02;107993;1244;58897;-67
2022/03/05 04:28:55;;;;;;;66.80;32.00;;;;;;;-0.05;77.82;101234.27;107728;1243;75948;-72
2022/03/05 04:31:24;;;;;;;64.00;29.40;;;;;;;-0.03;77.99;101234.73;107917;1243;72882;-70
2022/03/05 04:33:52;;;;;;;56.70;29.50;;;;;;;0.00;78.17;101236.56;107753;1244;70901;-71
2022/03/05 04:36:22;;;;;;;45.90;24.10;;;;;;;-0.07;77.47;101231.90;107694;1244;73557;-71
2022/03/05 04:38:51;;;;;;;53.40;26.40;;;;;;;-0.05;77.20;101237.52;107711;1244;59741;-70
2022/03/05 04:41:21;;;;;;;46.50;21.60;;;;;;;-0.06;77.15;101240.77;107740;1243;62024;-70
2022/03/05 04:43:50;;;;;;;47.20;22.30;;;;;;;-0.06;76.88;101242.15;107666;1244;76102;-71
2022/03/05 04:46:19;;;;;;;43.50;21.30;;;;;;;-0.10;76.38;101242.23;107655;1244;73626;-70
2022/03/05 04:48:48;;;;;;;43.00;20.70;;;;;;;-0.13;75.92;101248.98;107700;1244;71259;-71
2022/03/05 04:51:17;;;;;;;40.60;21.50;;;;;;;-0.13;75.72;101250.70;107701;1244;74955;-72
2022/03/05 04:53:46;;;;;;;41.20;20.90;;;;;;;-0.18;75.67;101256.09;107675;1244;62838;-70
2022/03/05 04:56:14;;;;;;;30.90;15.70;;;;;;;-0.15;75.66;101260.48;107769;1244;61583;-71
2022/03/05 04:58:43;;;;;;;35.50;19.60;;;;;;;-0.11;75.70;101267.09;107765;1244;74063;-72
2022/03/05 05:01:12;;;;;;;36.80;18.60;;;;;;;-0.17;75.82;101269.74;107892;1244;70246;-72
2022/03/05 05:03:41;;;;;;;35.00;17.00;;;;;;;-0.18;75.69;101273.21;107596;1247;69727;-72
2022/03/05 05:06:11;;;;;;;32.40;16.80;;;;;;;-0.14;75.08;101277.08;107773;1244;71125;-71
2022/03/05 05:08:40;;;;;;;30.60;16.20;;;;;;;-0.27;75.01;101277.13;107757;1244;59642;-70
2022/03/05 05:11:09;;;;;;;31.80;17.50;;;;;;;-0.25;75.24;101280.36;107653;1244;58916;-70
2022/03/05 05:13:39;;;;;;;32.50;17.40;;;;;;;-0.28;75.14;101286.56;107683;1244;72452;-72
2022/03/05 05:16:07;;;;;;;36.40;17.80;;;;;;;-0.33;74.92;101286.84;107753;1244;72255;-73
2022/03/05 05:18:36;;;;;;;30.40;15.50;;;;;;;-0.44;75.23;101286.34;107706;1244;68532;-70
2022/03/05 05:21:05;;;;;;;28.00;14.80;;;;;;;-0.43;74.97;101289.26;107807;1243;71944;-71
2022/03/05 05:23:34;;;;;;;33.80;16.70;;;;;;;-0.56;75.35;101285.19;107870;1243;60544;-71
2022/03/05 05:26:03;;;;;;;32.00;15.50;;;;;;;-0.56;75.36;101288.42;107936;1243;61209;-69
2022/03/05 05:28:32;;;;;;;27.10;13.20;;;;;;;-0.65;75.59;101290.82;107880;1244;73862;-71
2022/03/05 05:31:01;;;;;;;29.00;16.00;;;;;;;-0.68;75.72;101293.27;107854;1244;71816;-71
2022/03/05 05:33:30;;;;;;;31.00;16.80;;;;;;;-0.66;76.02;101300.08;107898;1244;69942;-75
2022/03/05 05:35:59;;;;;;;32.20;16.50;;;;;;;-0.71;76.17;101299.30;107891;1243;74236;-74
2022/03/05 05:38:28;;;;;;;34.40;16.50;;;;;;;-0.70;76.09;101299.81;107856;1243;59718;-74
2022/03/05 05:40:57;;;;;;;27.90;14.10;;;;;;;-0.67;76.11;101303.70;107971;1244;59857;-74
2022/03/05 05:43:26;;;;;;;31.70;16.60;;;;;;;-0.66;76.45;101308.30;107899;1244;75367;-75
2022/03/05 05:45:54;;;;;;;32.80;15.20;;;;;;;-0.64;76.55;101309.27;108024;1243;71830;-73
2022/03/05 05:48:43;;;;;;;32.10;15.50;;;;;;;-0.68;76.59;101316.35;107928;1244;70325;-73
2022/03/05 05:51:12;;;;;;;26.80;12.30;;;;;;;-0.63;76.64;101317.98;107872;1244;72442;-69
2022/03/05 05:53:41;;;;;;;34.40;17.10;;;;;;;-0.64;76.47;101320.05;107941;1244;63104;-70
2022/03/05 05:56:10;;;;;;;34.20;16.40;;;;;;;-0.58;76.93;101326.11;107445;1242;812021;-70
2022/03/05 05:58:40;;;;;;;33.70;17.20;;;;;;;-0.52;76.92;101327.90;108101;1241;71948;-72
2022/03/05 06:01:10;;;;;;;33.10;16.80;;;;;;;-0.52;76.98;101330.65;107993;1244;70130;-72
2022/03/05 06:03:39;;;;;;;36.80;17.00;;;;;;;-0.46;76.87;101336.02;108106;1243;69601;-72
2022/03/05 06:06:08;;;;;;;34.60;17.50;;;;;;;-0.44;76.83;101336.84;107953;1244;72908;-71
2022/03/05 06:08:37;;;;;;;37.00;17.20;;;;;;;-0.46;76.35;101342.00;107847;1244;59649;-75
2022/03/05 06:11:06;;;;;;;27.20;14.10;;;;;;;-0.43;76.69;101342.81;108122;1243;60335;-71
2022/03/05 06:13:35;;;;;;;34.90;16.50;;;;;;;-0.42;76.17;101348.09;107925;1244;73225;-72
2022/03/05 06:16:05;;;;;;;36.90;17.30;;;;;;;-0.38;76.20;101344.26;108101;1243;70318;-71
2022/03/05 06:18:34;;;;;;;23.80;13.60;;;;;;;-0.31;76.04;101347.05;108079;1242;69762;-72
2022/03/05 06:21:05;;;;;;;25.30;14.00;;;;;;;-0.21;76.10;101348.09;108127;1244;72476;-72
2022/03/05 06:23:35;;;;;;;31.70;15.90;;;;;;;-0.23;75.37;101357.71;108120;1243;59640;-74
2022/03/05 06:26:05;;;;;;;29.40;13.50;;;;;;;-0.34;75.47;101357.71;107849;1244;61434;-73
2022/03/05 06:28:34;;;;;;;27.30;14.30;;;;;;;-0.35;75.47;101362.36;108124;1243;73767;-73
2022/03/05 06:31:04;;;;;;;30.80;16.40;;;;;;;-0.34;75.46;101364.39;107958;1244;69901;-77
2022/03/05 06:33:33;;;;;;;24.50;13.60;;;;;;;-0.33;75.86;101363.52;108072;1241;69053;-73
2022/03/05 06:36:03;;;;;;;25.50;13.00;;;;;;;-0.16;75.14;101364.44;108008;1243;72840;-75
2022/03/05 06:38:32;;;;;;;26.50;13.00;;;;;;;-0.11;75.13;101368.45;108150;1244;62580;-73
2022/03/05 06:41:01;;;;;;;28.10;15.30;;;;;;;0.02;74.75;101364.45;107916;1244;60856;-71
2022/03/05 06:43:30;;;;;;;31.80;16.10;;;;;;;0.12;74.70;101367.52;107981;1244;74991;-72
2022/03/05 06:45:59;;;;;;;31.80;17.00;;;;;;;0.20;74.59;101371.46;107839;1244;71781;-73
2022/03/05 06:48:28;;;;;;;31.00;13.80;;;;;;;0.34;74.66;101372.58;107862;1244;68791;-72
2022/03/05 06:50:57;;;;;;;27.10;14.90;;;;;;;0.35;74.50;101370.86;108171;1243;73825;-77
2022/03/05 06:53:26;;;;;;;30.40;15.10;;;;;;;0.33;74.41;101372.95;107922;1244;63492;-74
2022/03/05 06:55:55;;;;;;;32.10;15.40;;;;;;;0.19;74.65;101380.40;107989;1244;61685;-74
2022/03/05 06:58:23;;;;;;;28.90;16.20;;;;;;;0.30;74.86;101379.52;107966;1244;74277;-74
2022/03/05 07:00:52;;;;;;;28.90;15.20;;;;;;;0.25;75.44;101381.84;108186;1242;72102;-72
2022/03/05 07:03:22;;;;;;;28.30;15.20;;;;;;;0.46;75.49;101389.98;107995;1244;70569;-74
2022/03/05 07:05:51;;;;;;;30.70;15.90;;;;;;;0.53;75.55;101387.80;107809;1244;73772;-73
2022/03/05 07:08:20;;;;;;;34.30;17.10;;;;;;;0.56;75.86;101391.15;108130;1244;59644;-74
2022/03/05 07:10:49;;;;;;;24.70;14.10;;;;;;;0.69;75.57;101386.44;107984;1244;59565;-72
2022/03/05 07:13:18;;;;;;;30.40;16.00;;;;;;;0.80;74.80;101390.15;108014;1244;75603;-71
2022/03/05 07:15:47;;;;;;;26.00;13.60;;;;;;;0.89;74.98;101386.88;107910;1244;72332;-73
2022/03/05 07:18:16;;;;;;;23.70;12.00;;;;;;;1.03;74.33;101385.02;107680;1244;69767;-73
2022/03/05 07:20:46;;;;;;;26.50;14.30;;;;;;;1.02;73.48;101392.77;107841;1244;71856;-72
2022/03/05 07:23:16;;;;;;;26.70;14.20;;;;;;;0.88;73.41;101388.10;107943;1244;60824;-78
2022/03/05 07:25:45;;;;;;;26.10;14.00;;;;;;;0.89;73.92;101392.54;108030;1244;61811;-74
2022/03/05 07:28:14;;;;;;;26.20;14.30;;;;;;;1.04;73.79;101392.73;108139;1242;76080;-78
2022/03/05 07:30:43;;;;;;;19.70;10.00;;;;;;;1.01;73.92;101388.17;107643;1244;70414;-75
2022/03/05 07:33:14;;;;;;;15.00;9.30;;;;;;;1.13;72.01;101401.44;108081;1243;67873;-73
2022/03/05 07:35:43;;;;;;;18.50;10.50;;;;;;;1.09;71.85;101400.84;107762;1244;71961;-73
2022/03/05 07:38:12;;;;;;;24.70;13.50;;;;;;;1.24;73.03;101395.20;107938;1243;58729;-72
2022/03/05 07:40:41;;;;;;;21.60;12.00;;;;;;;1.24;73.35;101395.88;107986;1243;61833;-73
2022/03/05 07:43:12;;;;;;;24.60;13.30;;;;;;;1.21;73.45;101393.20;107806;1244;71276;-72
2022/03/05 07:45:41;;;;;;;20.30;11.40;;;;;;;1.33;73.16;101395.84;107988;1243;72257;-72
2022/03/05 07:48:09;;;;;;;26.70;14.00;;;;;;;1.40;71.98;101390.19;108086;1241;70889;-74
2022/03/05 07:50:38;;;;;;;18.40;11.00;;;;;;;1.46;71.87;101393.65;108115;1241;71844;-75
2022/03/05 07:53:11;;;;;;;14.70;8.40;;;;;;;1.65;70.24;101392.35;107870;1244;60440;-72
2022/03/05 07:55:45;;;;;;;21.20;11.20;;;;;;;1.64;69.95;101388.09;107572;1244;60558;-72
2022/03/05 07:58:14;;;;;;;20.10;11.20;;;;;;;1.73;69.04;101392.48;107907;1241;74095;-74
2022/03/05 08:00:43;;;;;;;22.40;12.30;;;;;;;1.69;68.84;101394.48;108157;1241;72301;-79
2022/03/05 08:03:12;;;;;;;19.90;11.50;;;;;;;1.79;69.57;101398.33;108008;1241;71023;-74
2022/03/05 08:05:43;;;;;;;11.10;6.30;;;;;;;1.76;68.23;101393.09;107901;1243;73744;-72
2022/03/05 08:08:12;;;;;;;19.90;10.60;;;;;;;1.71;67.81;101400.10;108199;1241;60955;-75
2022/03/05 08:10:41;;;;;;;17.90;9.40;;;;;;;1.77;68.52;101401.31;108077;1241;60641;-74
2022/03/05 08:13:11;;;;;;;21.60;12.20;;;;;;;1.86;67.83;101402.46;107614;1244;72867;-72
2022/03/05 08:15:39;;;;;;;18.50;9.70;;;;;;;1.86;67.61;101403.84;108025;1241;72427;-75
2022/03/05 08:18:09;;;;;;;14.40;8.40;;;;;;;1.72;67.23;101403.48;107827;1241;70467;-73
2022/03/05 08:20:38;;;;;;;13.30;7.10;;;;;;;1.49;66.43;101411.42;107602;1241;73151;-72
2022/03/05 08:23:08;;;;;;;13.90;8.30;;;;;;;1.56;65.32;101414.52;107740;1241;59645;-73
2022/03/05 08:25:38;;;;;;;13.30;8.70;;;;;;;1.53;65.45;101413.76;107534;1242;62002;-72
2022/03/05 08:28:07;;;;;;;11.90;6.50;;;;;;;1.42;66.06;101413.13;108076;1241;74173;-71
2022/03/05 08:30:36;;;;;;;13.40;8.30;;;;;;;1.56;65.10;101411.78;107554;1243;69964;-72
2022/03/05 08:33:05;;;;;;;17.70;9.50;;;;;;;1.55;64.98;101411.30;107676;1244;68986;-75
2022/03/05 08:35:34;;;;;;;19.90;9.10;;;;;;;1.33;65.22;101418.67;107724;1242;73941;-73
2022/03/05 08:38:04;;;;;;;18.60;9.60;;;;;;;1.30;66.12;101419.60;107742;1243;61818;-74
2022/03/05 08:40:33;;;;;;;17.20;9.70;;;;;;;1.28;66.85;101420.16;107593;1244;61142;-74
2022/03/05 08:43:02;;;;;;;14.80;8.50;;;;;;;1.32;66.74;101420.76;107765;1243;72915;-74
2022/03/05 08:45:33;;;;;;;19.20;10.40;;;;;;;1.38;66.65;101422.35;108000;1241;71801;-72
2022/03/05 08:48:01;;;;;;;17.40;10.10;;;;;;;1.40;66.65;101425.03;107853;1241;71232;-73
2022/03/05 08:50:30;;;;;;;14.10;7.20;;;;;;;1.43;66.30;101423.59;108152;1241;75371;-73
2022/03/05 08:52:59;;;;;;;14.80;8.50;;;;;;;1.50;65.42;101426.85;108079;1241;59652;-74
2022/03/05 08:55:28;;;;;;;13.00;7.40;;;;;;;1.45;64.50;101429.73;108081;1241;59677;-75
2022/03/05 08:57:57;;;;;;;14.50;7.30;;;;;;;1.36;64.19;101431.64;107538;1241;71700;-75
2022/03/05 09:00:27;;;;;;;14.60;7.80;;;;;;;1.29;64.04;101433.19;107789;1241;69551;-78
2022/03/05 09:02:57;;;;;;;12.00;8.30;;;;;;;1.20;64.45;101437.49;107774;1244;71139;-77
2022/03/05 09:05:26;;;;;;;12.30;8.50;;;;;;;1.25;64.60;101437.71;107749;1244;74465;-76
2022/03/05 09:07:55;;;;;;;15.10;8.40;;;;;;;1.25;64.90;101439.95;108021;1243;60846;-77
2022/03/05 09:10:23;;;;;;;16.20;9.80;;;;;;;1.25;64.82;101439.80;107806;1244;60827;-76
2022/03/05 09:12:52;;;;;;;12.70;7.30;;;;;;;1.23;65.13;101445.15;107896;1244;72481;-75
2022/03/05 09:15:22;;;;;;;17.20;9.00;;;;;;;1.25;65.20;101447.52;107628;1243;71715;-75
2022/03/05 09:17:50;;;;;;;13.70;7.50;;;;;;;1.22;65.62;101453.25;107742;1244;69736;-74
2022/03/05 09:20:19;;;;;;;13.70;7.90;;;;;;;1.32;64.91;101457.64;107995;1241;72331;-77
2022/03/05 09:22:48;;;;;;;12.10;7.20;;;;;;;1.28;64.74;101454.66;107627;1244;59596;-77
2022/03/05 09:25:17;;;;;;;14.60;7.70;;;;;;;1.25;64.58;101453.86;107794;1243;59772;-75
2022/03/05 09:27:47;;;;;;;11.90;7.00;;;;;;;1.23;64.72;101459.39;108069;1244;73580;-76
2022/03/05 09:30:16;;;;;;;12.50;7.80;;;;;;;1.23;64.31;101456.64;108112;1241;72535;-75
2022/03/05 09:32:45;;;;;;;12.30;6.50;;;;;;;1.16;64.72;101459.73;107959;1242;71626;-73
2022/03/05 09:35:14;;;;;;;14.00;8.60;;;;;;;1.20;65.24;101459.80;107771;1243;70631;-73
2022/03/05 09:37:43;;;;;;;15.10;9.00;;;;;;;1.27;65.79;101459.98;108051;1242;59634;-72
2022/03/05 09:40:13;;;;;;;17.10;8.50;;;;;;;1.41;65.25;101459.50;108162;1243;59620;-72
2022/03/05 09:42:45;;;;;;;14.70;8.40;;;;;;;1.53;64.39;101466.62;108138;1244;72500;-74
2022/03/05 09:45:15;;;;;;;11.70;6.50;;;;;;;1.58;63.95;101464.80;108371;1241;70305;-74
2022/03/05 09:47:46;;;;;;;15.50;7.80;;;;;;;1.65;63.65;101464.81;109358;1241;69480;-74
2022/03/05 09:50:15;;;;;;;13.30;7.30;;;;;;;1.60;63.78;101467.83;108282;1240;74455;-73
2022/03/05 09:52:43;;;;;;;12.30;6.80;;;;;;;1.59;63.15;101464.42;108214;1241;61028;-72
2022/03/05 09:55:12;;;;;;;14.90;8.20;;;;;;;1.50;63.39;101458.63;108025;1244;60591;-75
2022/03/05 09:57:42;;;;;;;10.10;6.70;;;;;;;1.50;63.87;101462.39;108015;1242;73483;-73
2022/03/05 10:00:12;;;;;;;13.90;7.00;;;;;;;1.53;62.88;101463.19;108213;1241;72190;-73
2022/03/05 10:02:43;;;;;;;17.30;8.50;;;;;;;1.40;63.26;101460.03;108184;1241;69715;-73
2022/03/05 10:05:14;;;;;;;15.70;8.50;;;;;;;1.48;63.57;101459.87;108179;1241;71940;-73
2022/03/05 10:08:01;;;;;;;13.10;7.60;;;;;;;1.55;63.53;101458.84;108110;1241;59736;-75
2022/03/05 10:10:38;;;;;;;14.90;7.70;;;;;;;1.64;63.09;101457.10;107859;1241;61294;-73
2022/03/05 10:13:33;;;;;;;13.20;7.10;;;;;;;1.59;63.32;101469.91;107822;1244;74271;-70
2022/03/05 10:16:28;;;;;;;13.70;7.90;;;;;;;1.52;63.94;101463.05;107749;1244;70872;-70
2022/03/05 10:19:18;;;;;;;11.70;6.60;;;;;;;1.64;63.72;101466.17;108145;1241;71534;-72
2022/03/05 10:22:01;;;;;;;14.30;8.30;;;;;;;1.67;63.62;101468.54;107553;1244;73609;-72
2022/03/05 10:24:40;;;;;;;15.20;7.90;;;;;;;1.77;63.93;101460.23;108040;1241;59733;-73
2022/03/05 10:27:10;;;;;;;12.90;7.10;;;;;;;1.76;63.57;101459.55;107862;1242;60029;-73
2022/03/05 10:29:39;;;;;;;13.50;7.50;;;;;;;1.79;63.64;101460.00;107590;1244;74903;-73
2022/03/05 10:32:12;;;;;;;12.80;8.20;;;;;;;1.81;63.45;101460.29;107823;1243;73281;-74
2022/03/05 10:34:41;;;;;;;12.50;8.10;;;;;;;1.79;62.80;101468.23;107614;1244;69109;-74
2022/03/05 10:37:11;;;;;;;12.80;7.50;;;;;;;1.65;62.57;101465.31;108214;1241;71993;-72
2022/03/05 10:39:40;;;;;;;10.90;6.90;;;;;;;1.69;62.40;101460.07;108155;1241;59669;-74
2022/03/05 10:42:27;;;;;;;13.30;7.60;;;;;;;1.71;62.93;101459.86;107978;1244;61141;-74
2022/03/05 10:45:17;;;;;;;15.50;8.50;;;;;;;1.72;63.80;101458.79;107871;1241;74894;-73
2022/03/05 10:47:48;;;;;;;13.90;8.60;;;;;;;1.84;63.64;101458.86;107815;1240;74081;-75
2022/03/05 10:50:23;;;;;;;14.90;8.60;;;;;;;1.83;63.72;101460.92;107661;1241;71969;-77
2022/03/05 10:53:02;;;;;;;12.70;8.10;;;;;;;1.83;63.54;101461.29;107862;1244;73468;-77
2022/03/05 10:55:38;;;;;;;15.90;9.00;;;;;;;1.84;63.65;101458.66;107837;1241;60293;-73
2022/03/05 10:58:13;;;;;;;11.10;7.20;;;;;;;1.98;63.51;101463.83;107835;1241;61683;-75
2022/03/05 11:00:49;;;;;;;15.20;10.20;;;;;;;2.02;62.70;101461.33;107912;1241;74769;-76
2022/03/05 11:03:19;;;;;;;13.70;8.20;;;;;;;2.01;62.87;101460.49;108297;1241;69840;-76
2022/03/05 11:05:49;;;;;;;14.10;8.30;;;;;;;2.11;62.44;101463.33;108039;1241;69767;-79
2022/03/05 11:08:19;;;;;;;16.10;9.50;;;;;;;2.08;62.19;101453.27;107965;1241;73231;-81
2022/03/05 11:10:49;;;;;;;15.00;9.00;;;;;;;1.93;62.25;101455.36;108210;1241;61150;-79
2022/03/05 11:13:19;;;;;;;12.30;6.20;;;;;;;1.96;63.10;101451.69;108306;1241;61000;-76
2022/03/05 11:15:48;;;;;;;14.60;9.30;;;;;;;2.01;62.72;101451.22;108165;1243;71369;-77
2022/03/05 11:18:19;;;;;;;14.10;9.40;;;;;;;1.94;63.05;101447.63;107849;1244;71514;-77
2022/03/05 11:20:49;;;;;;;16.50;9.80;;;;;;;1.90;62.56;101451.14;107970;1241;68948;-79
2022/03/05 11:23:20;;;;;;;17.20;9.60;;;;;;;1.98;62.37;101450.79;107590;1241;74280;-76
2022/03/05 11:25:50;;;;;;;12.90;7.50;;;;;;;1.96;62.56;101452.71;107859;1243;60869;-75